Latest Weather Observations for Yulara

IDD60801

Issued at 4:31 pm CST Friday 6 March 2015 (issued every 30 minutes, with the page automatically refreshed every 10 minutes)

About weather observations | Map of weather stations | Latest weather observations for NT | Other Formats
Station Details ID: 015635 Name: YULARA AIRPORT Lat: -25.19 Lon: 130.97 Height: 492.0 m
Data from the previous 72 hours. | See also: Recent months at Yulara
Date/Time
CST
Temp
°C
App
Temp
°C
Dew
Point
Rel
Hum
%
Delta-T
°C
Wind Press
QNH
hPa
Press
MSL
hPa
Rain
since 9 am
mm
Dir
 
Spd
km/h
Gust
km/h
Spd
kts
Gust
kts
06/04:30pm 32.0 27.2 4.7 18 14.6 ESE 19 32 10 17 1013.2 1010.0 0.0
06/04:00pm 32.0 27.6 4.7 18 14.6 ESE 17 28 9 15 1013.4 1010.2 0.0
06/03:30pm 31.3 27.3 4.9 19 14.1 E 15 28 8 15 1013.8 1010.6 0.0
06/03:00pm 31.3 26.5 4.9 19 14.1 ESE 19 30 10 16 1014.1 1010.9 0.0
06/02:30pm 31.1 26.5 5.5 20 13.8 ESE 19 26 10 14 1014.5 1011.4 0.0
06/02:00pm 30.1 24.9 5.4 21 13.2 ESE 22 32 12 17 1015.1 1011.9 0.0
06/01:30pm 29.9 25.4 5.9 22 12.9 E 19 35 10 19 1015.6 1012.4 0.0
06/01:00pm 29.0 24.2 5.8 23 12.4 ESE 20 30 11 16 1016.2 1013.0 0.0
06/12:30pm 27.9 23.4 6.1 25 11.7 ESE 19 26 10 14 1016.9 1013.7 0.0
06/12:00pm 28.0 23.4 6.7 26 11.5 E 20 30 11 16 1017.3 1014.1 0.0
06/11:30am 27.1 22.1 6.5 27 11.0 ESE 22 30 12 16 1017.9 1014.7 0.0
06/11:00am 26.7 22.0 6.2 27 10.9 ESE 20 32 11 17 1018.1 1014.9 0.0
06/10:30am 25.9 20.5 6.5 29 10.3 E 24 33 13 18 1018.5 1015.4 0.0
06/10:00am 25.5 20.1 6.2 29 10.2 ESE 24 33 13 18 1018.6 1015.5 0.0
06/09:30am 24.9 19.1 6.1 30 9.9 ESE 26 33 14 18 1018.5 1015.4 0.0
06/09:00am 24.7 18.6 6.4 31 9.7 E 28 39 15 21 1018.5 1015.4 0.0
06/08:30am 24.2 18.0 6.0 31 9.5 E 28 41 15 22 1018.1 1014.9 0.0
06/08:00am 23.9 17.6 5.8 31 9.4 ESE 28 39 15 21 1018.1 1014.9 0.0
06/07:30am 23.6 17.7 6.0 32 9.2 ESE 26 35 14 19 1018.0 1014.8 0.0
06/07:00am 23.1 18.4 6.0 33 8.9 ESE 20 28 11 15 1018.0 1014.8 0.0
06/06:30am 23.2 18.7 6.0 33 8.9 ESE 19 24 10 13 1017.7 1014.5 0.0
06/06:00am 23.4 18.9 6.2 33 9.0 ESE 19 30 10 16 1017.8 1014.6 0.0
06/05:30am 23.7 19.2 6.0 32 9.2 SE 19 26 10 14 1017.9 1014.7 0.0
06/05:00am 24.2 19.5 6.0 31 9.5 ESE 20 26 11 14 1017.6 1014.4 0.0
06/04:30am 24.5 20.2 5.3 29 9.9 SE 17 22 9 12 1017.6 1014.4 0.0
06/04:00am 25.2 20.3 4.9 27 10.5 SE 20 30 11 16 1017.5 1014.3 0.0
06/03:30am 25.3 20.8 4.4 26 10.7 SE 17 22 9 12 1017.4 1014.2 0.0
06/03:00am 26.0 21.6 4.5 25 11.1 SE 17 26 9 14 1017.2 1014.0 0.0
06/02:30am 26.5 21.4 4.3 24 11.4 ESE 20 26 11 14 1017.3 1014.1 0.0
06/02:00am 26.9 21.8 4.0 23 11.8 ESE 20 30 11 16 1017.6 1014.4 0.0
06/01:30am 27.1 22.0 4.2 23 11.8 SE 20 28 11 15 1017.7 1014.5 0.0
06/01:00am 27.5 22.4 3.9 22 12.1 SE 20 33 11 18 1018.0 1014.8 0.0
06/12:30am 28.2 22.7 3.8 21 12.6 ESE 22 35 12 19 1018.1 1014.9 0.0
06/12:00am 28.7 22.5 4.2 21 12.7 ESE 26 35 14 19 1018.1 1014.9 0.0
 
Date/Time
CST
Temp
°C
App
Temp
°C
Dew
Point
Rel
Hum
%
Delta-T
°C
Wind Press
QNH
hPa
Press
MSL
hPa
Rain
since 9 am
mm
Dir
 
Spd
km/h
Gust
km/h
Spd
kts
Gust
kts
05/11:30pm 28.9 24.2 5.1 22 12.6 ESE 19 30 10 16 1018.2 1015.1 0.0
05/11:00pm 29.4 23.8 5.5 22 12.8 ESE 24 35 13 19 1018.1 1014.9 0.0
05/10:30pm 29.9 24.3 5.2 21 13.2 ESE 24 35 13 19 1018.2 1015.1 0.0
05/10:00pm 30.4 24.5 5.6 21 13.4 ESE 26 37 14 20 1018.1 1014.9 0.0
05/09:30pm 30.9 25.3 5.3 20 13.7 ESE 24 37 13 20 1017.8 1014.6 0.0
05/09:00pm 31.6 25.3 5.9 20 14.0 ESE 28 35 15 19 1017.2 1014.0 0.0
05/08:30pm 32.2 26.4 6.4 20 14.2 ESE 26 35 14 19 1016.5 1013.4 0.0
05/08:00pm 32.9 27.3 7.0 20 14.4 ESE 26 35 14 19 1015.8 1012.6 0.0
05/07:30pm 34.1 29.5 6.4 18 15.4 ESE 20 28 11 15 1015.2 1012.0 0.0
05/07:00pm 34.9 30.0 7.1 18 15.7 ESE 22 30 12 16 1014.8 1011.6 0.0
05/06:30pm 35.6 30.7 6.8 17 16.2 E 22 32 12 17 1014.7 1011.5 0.0
05/06:00pm 35.7 30.6 6.0 16 16.5 ESE 22 30 12 16 1014.4 1011.2 0.0
05/05:30pm 36.1 31.5 6.3 16 16.7 ESE 20 30 11 16 1014.0 1010.8 0.0
05/05:00pm 36.4 31.4 6.6 16 16.8 E 22 35 12 19 1014.2 1011.0 0.0
05/04:30pm 36.4 31.8 6.6 16 16.8 E 20 30 11 16 1014.3 1011.1 0.0
05/04:00pm 35.8 30.7 6.1 16 16.6 ESE 22 35 12 19 1014.5 1011.4 0.0
05/03:30pm 35.6 30.1 5.9 16 16.5 E 24 41 13 22 1015.0 1011.8 0.0
05/03:00pm 34.9 29.5 6.2 17 16.0 E 24 44 13 24 1015.5 1012.3 0.0
05/02:30pm 35.7 29.7 6.9 17 16.3 E 28 39 15 21 1015.9 1012.7 0.0
05/02:00pm 34.9 29.1 7.9 19 15.4 E 28 44 15 24 1016.3 1013.1 0.0
05/01:35pm 34.1 28.3 8.0 20 14.9 E 28 46 15 25 1016.8 1013.6 0.0
05/01:30pm 33.8 27.9 7.7 20 14.8 E 28 41 15 22 1016.9 1013.7 0.0
05/01:00pm 33.6 27.9 8.3 21 14.5 ESE 28 46 15 25 1017.6 1014.4 0.0
05/12:30pm 32.3 26.3 8.5 23 13.5 E 30 48 16 26 1018.2 1015.1 0.0
05/12:21pm 32.0 25.9 8.3 23 13.4 ESE 30 48 16 26 1018.3 1015.2 0.0
05/12:00pm 31.6 25.6 8.6 24 13.1 ESE 30 43 16 23 1018.5 1015.4 0.0
05/11:34am 30.9 25.0 9.2 26 12.4 ESE 30 48 16 26 1018.8 1015.7 0.0
05/11:30am 31.4 25.9 9.0 25 12.8 ESE 28 41 15 22 1019.1 1015.9 0.0
05/11:00am 30.0 24.5 9.0 27 11.9 ESE 28 39 15 21 1019.6 1016.4 0.0
05/10:30am 29.4 23.5 9.0 28 11.5 ESE 30 41 16 22 1019.7 1016.5 0.0
05/10:00am 29.0 23.5 9.2 29 11.2 ESE 28 43 15 23 1019.9 1016.7 0.0
05/09:30am 28.1 22.4 9.9 32 10.4 ESE 30 43 16 23 1020.1 1017.0 0.0
05/09:00am 27.0 21.7 9.8 34 9.7 ESE 28 39 15 21 1020.1 1017.0 0.0
05/08:30am 26.8 21.9 10.1 35 9.5 ESE 26 37 14 20 1019.8 1016.6 0.0
05/08:00am 25.8 20.3 10.4 38 8.8 ESE 30 44 16 24 1019.5 1016.3 0.0
05/07:30am 25.3 20.6 10.7 40 8.3 ESE 26 43 14 23 1019.2 1016.0 0.0
05/07:00am 25.0 21.7 10.8 41 8.1 ESE 19 28 10 15 1018.8 1015.7 0.0
05/06:30am 25.3 21.4 10.7 40 8.3 ESE 22 33 12 18 1018.2 1015.1 0.0
05/06:00am 25.6 20.9 10.6 39 8.6 ESE 26 41 14 22 1017.6 1014.4 0.0
05/05:30am 25.9 21.2 10.5 38 8.8 ESE 26 35 14 19 1017.3 1014.1 0.0
05/05:00am 26.1 22.9 11.1 39 8.7 ESE 19 24 10 13 1016.5 1013.4 0.0
05/04:30am 26.5 21.9 11.0 38 8.9 SE 26 33 14 18 1016.1 1012.9 0.0
05/04:00am 27.3 21.3 10.9 36 9.5 SE 33 44 18 24 1015.6 1012.4 0.0
05/03:30am 28.1 22.0 9.9 32 10.4 SE 32 41 17 22 1015.6 1012.4 0.0
05/03:00am 28.9 24.5 9.1 29 11.2 SE 22 33 12 18 1015.5 1012.3 0.0
05/02:30am 29.6 24.5 9.2 28 11.6 SE 26 43 14 23 1015.4 1012.2 0.0
05/02:00am 30.0 24.5 9.0 27 11.9 SE 28 37 15 20 1015.3 1012.1 0.0
05/01:30am 30.3 24.3 8.7 26 12.2 SE 30 43 16 23 1015.4 1012.2 0.0
05/01:13am 30.7 24.4 9.0 26 12.4 SE 32 50 17 27 1015.4 1012.2 0.0
05/01:00am 31.0 25.2 9.3 26 12.4 SE 30 39 16 21 1015.6 1012.4 0.0
05/12:30am 32.2 24.8 8.4 23 13.5 SE 37 50 20 27 1015.8 1012.6 0.0
05/12:22am 32.9 27.2 8.4 22 14.0 SE 28 46 15 25 1015.6 1012.4 0.0
05/12:00am 33.2 27.8 7.9 21 14.3 SE 26 35 14 19 1015.5 1012.3 0.0
 
Date/Time
CST
Temp
°C
App
Temp
°C
Dew
Point
Rel
Hum
%
Delta-T
°C
Wind Press
QNH
hPa
Press
MSL
hPa
Rain
since 9 am
mm
Dir
 
Spd
km/h
Gust
km/h
Spd
kts
Gust
kts
04/11:30pm 33.6 27.5 8.3 21 14.5 SE 30 41 16 22 1015.5 1012.3 0.0
04/11:00pm 34.3 28.2 8.1 20 15.0 SE 30 43 16 23 1015.4 1012.2 0.0
04/10:30pm 34.9 28.3 7.9 19 15.4 SE 32 44 17 24 1015.2 1012.0 0.0
04/10:00pm 35.5 30.0 7.5 18 15.9 ESE 26 39 14 21 1015.0 1011.8 0.0
04/09:30pm 36.1 31.1 8.0 18 16.2 ESE 24 44 13 24 1014.4 1011.2 0.0
04/09:00pm 35.6 32.4 6.8 17 16.2 ESE 13 17 7 9 1014.0 1010.8 0.0
04/08:30pm 36.2 32.5 6.4 16 16.7 ESE 15 20 8 11 1013.4 1010.2 0.0
04/08:00pm 36.8 33.8 5.9 15 17.3 ESE 11 17 6 9 1012.8 1009.6 0.0
04/07:30pm 38.0 33.8 5.9 14 18.1 ESE 17 24 9 13 1012.2 1009.0 0.0
04/07:00pm 38.8 34.2 5.4 13 18.7 ESE 19 28 10 15 1012.1 1008.9 0.0
04/06:30pm 39.6 34.8 4.9 12 19.4 ESE 19 32 10 17 1011.8 1008.6 0.0
04/06:00pm 40.2 35.0 5.4 12 19.6 ESE 22 33 12 18 1011.7 1008.5 0.0
04/05:30pm 40.2 35.4 5.4 12 19.6 ESE 20 32 11 17 1011.5 1008.3 0.0
04/05:00pm 40.6 36.9 4.4 11 20.2 E 13 20 7 11 1011.3 1008.1 0.0
04/04:30pm 40.3 35.8 4.2 11 20.0 ENE 17 35 9 19 1011.4 1008.2 0.0
04/04:00pm 40.5 36.0 4.3 11 20.1 E 17 26 9 14 1011.5 1008.3 0.0
04/03:30pm 40.6 36.4 5.7 12 19.8 ENE 17 37 9 20 1011.9 1008.7 0.0
04/03:00pm 39.8 34.9 5.1 12 19.5 ENE 20 37 11 20 1012.3 1009.1 0.0
04/02:30pm 39.4 34.0 4.7 12 19.3 ENE 22 33 12 18 1012.8 1009.6 0.0
04/02:00pm 39.3 34.3 4.7 12 19.2 NE 20 37 11 20 1013.2 1010.0 0.0
04/01:30pm 38.3 33.4 3.9 12 18.8 E 19 30 10 16 1013.6 1010.4 0.0
04/01:00pm 37.0 30.7 4.0 13 17.9 ENE 26 39 14 21 1014.0 1010.8 0.0
04/12:30pm 37.3 30.9 5.3 14 17.8 ENE 28 39 15 21 1014.4 1011.2 0.0
04/12:00pm 36.4 28.9 4.6 14 17.4 E 33 44 18 24 1015.0 1011.8 0.0
04/11:50am 36.5 29.0 4.7 14 17.4 E 33 52 18 28 1015.2 1012.0 0.0
04/11:30am 36.2 28.9 4.5 14 17.3 ENE 32 43 17 23 1015.5 1012.3 0.0
04/11:00am 35.3 28.1 4.8 15 16.6 E 32 52 17 28 1016.0 1012.8 0.0
04/10:53am 35.0 27.5 4.5 15 16.5 E 33 52 18 28 1016.0 1012.8 0.0
04/10:30am 33.8 26.9 4.5 16 15.8 E 30 46 16 25 1016.4 1013.3 0.0
04/10:00am 33.0 25.4 3.9 16 15.5 ESE 33 48 18 26 1016.5 1013.4 0.0
04/09:30am 32.4 25.8 4.2 17 15.0 E 28 41 15 22 1016.6 1013.5 0.0
04/09:00am 31.0 25.1 3.9 18 14.2 ESE 24 37 13 20 1016.6 1013.5 0.0
04/08:30am 29.8 23.2 4.4 20 13.4 ESE 28 41 15 22 1016.2 1013.0 0.0
04/08:00am 29.0 23.6 4.5 21 12.9 SE 22 32 12 17 1016.1 1012.9 0.0
04/07:30am 26.8 22.8 5.1 25 11.3 SE 15 20 8 11 1015.6 1012.4 0.0
04/07:00am 25.7 22.5 5.3 27 10.6 SSE 11 17 6 9 1015.3 1012.1 0.0
04/06:30am 25.8 22.3 5.4 27 10.7 SSE 13 20 7 11 1014.7 1011.5 0.0
04/06:00am 26.5 23.0 5.5 26 11.0 SSE 13 17 7 9 1014.2 1011.0 0.0
04/05:30am 27.2 23.0 5.5 25 11.5 SSE 17 22 9 12 1013.7 1010.5 0.0
04/05:00am 26.0 22.5 5.6 27 10.7 S 13 17 7 9 1013.3 1010.1 0.0
04/04:30am 27.2 23.0 5.5 25 11.5 S 17 20 9 11 1013.0 1009.8 0.0
04/04:00am 28.1 24.1 5.0 23 12.2 S 15 20 8 11 1012.8 1009.6 0.0
04/03:30am 30.0 25.2 4.6 20 13.4 SSE 19 26 10 14 1012.6 1009.3 0.0
04/03:00am 30.0 25.2 4.6 20 13.4 SSE 19 24 10 13 1012.6 1009.3 0.0
04/02:30am 30.5 25.6 4.3 19 13.8 SSE 19 26 10 14 1012.8 1009.6 0.0
04/02:00am 30.7 25.9 4.4 19 13.9 SSE 19 30 10 16 1013.1 1009.9 0.0
04/01:30am 30.8 26.2 3.8 18 14.1 S 17 24 9 13 1013.3 1010.1 0.0
04/01:00am 32.1 26.4 3.1 16 15.1 SE 22 30 12 16 1013.0 1009.8 0.0
04/12:30am 33.0 26.5 2.9 15 15.7 SE 26 37 14 20 1013.0 1009.8 0.0
04/12:00am 34.1 28.4 2.8 14 16.4 SSE 22 32 12 17 1013.0 1009.8 0.0
 
Date/Time
CST
Temp
°C
App
Temp
°C
Dew
Point
Rel
Hum
%
Delta-T
°C
Wind Press
QNH
hPa
Press
MSL
hPa
Rain
since 9 am
mm
Dir
 
Spd
km/h
Gust
km/h
Spd
kts
Gust
kts
03/11:30pm 34.2 30.7 7.3 19 15.2 S 15 20 8 11 1012.6 1009.3 0.0
03/11:00pm 34.4 32.1 7.5 19 15.2 SE 9 13 5 7 1012.0 1008.8 0.0
03/10:30pm 35.3 32.2 7.4 18 15.9 ESE 13 17 7 9 1011.7 1008.5 0.0
03/10:00pm 35.9 32.4 7.0 17 16.4 ESE 15 20 8 11 1011.3 1008.1 0.0
03/09:30pm 36.0 32.5 7.1 17 16.4 ESE 15 20 8 11 1011.1 1007.9 0.0
03/09:00pm 36.0 32.9 7.1 17 16.4 ESE 13 17 7 9 1010.9 1007.7 0.0
03/08:30pm 36.3 33.8 6.5 16 16.8 ESE 9 11 5 6 1010.7 1007.4 0.0
03/08:00pm 38.2 35.0 7.0 15 17.8 ESE 13 17 7 9 1010.2 1007.0 0.0
03/07:30pm 39.0 35.4 6.7 14 18.5 ESE 15 20 8 11 1009.9 1006.7 0.0
03/07:00pm 39.7 36.7 6.1 13 19.1 E 11 20 6 11 1009.7 1006.5 0.0
03/06:30pm 40.0 35.6 6.4 13 19.2 ENE 19 26 10 14 1009.6 1006.4 0.0
03/06:00pm 40.4 37.2 6.7 13 19.4 E 13 22 7 12 1009.3 1006.1 0.0
03/05:30pm 40.9 37.4 7.1 13 19.6 ENE 15 22 8 12 1009.3 1006.1 0.0
03/05:00pm 40.7 36.9 5.7 12 19.9 E 15 28 8 15 1009.2 1006.0 0.0

Other Formats:

Comma delimited format used in spreadsheet applications
http://www.bom.gov.au/fwo/IDD60801/IDD60801.94462.axf

JavaScript Object Notation format (JSON) in row-major order
http://www.bom.gov.au/fwo/IDD60801/IDD60801.94462.json